sensor_id;sensor_type;location;lat;lon;timestamp;pressure;altitude;pressure_sealevel;temperature;humidity
49945;BME280;35838;49.134;9.212;2024-01-11T00:00:39;100967.41;;;-2.18;100.00
49945;BME280;35838;49.134;9.212;2024-01-11T00:02:10;100969.28;;;-2.16;100.00
49945;BME280;35838;49.134;9.212;2024-01-11T00:03:44;100964.59;;;-2.23;100.00
49945;BME280;35838;49.134;9.212;2024-01-11T00:05:17;100964.09;;;-2.17;100.00
49945;BME280;35838;49.134;9.212;2024-01-11T00:06:49;100965.88;;;-2.16;100.00
49945;BME280;35838;49.134;9.212;2024-01-11T00:08:26;100967.91;;;-2.11;100.00
49945;BME280;35838;49.134;9.212;2024-01-11T00:10:00;100965.66;;;-2.19;100.00
49945;BME280;35838;49.134;9.212;2024-01-11T00:11:31;100967.13;;;-2.23;100.00
49945;BME280;35838;49.134;9.212;2024-01-11T00:13:04;100961.13;;;-2.24;100.00
49945;BME280;35838;49.134;9.212;2024-01-11T00:14:36;100971.91;;;-2.28;100.00
49945;BME280;35838;49.134;9.212;2024-01-11T00:16:09;100963.09;;;-2.33;100.00
49945;BME280;35838;49.134;9.212;2024-01-11T00:17:41;100963.50;;;-2.27;100.00
49945;BME280;35838;49.134;9.212;2024-01-11T00:19:14;100970.44;;;-2.24;100.00
49945;BME280;35838;49.134;9.212;2024-01-11T00:20:45;100963.91;;;-2.34;100.00
49945;BME280;35838;49.134;9.212;2024-01-11T00:22:19;100962.69;;;-2.39;100.00
49945;BME280;35838;49.134;9.212;2024-01-11T00:23:53;100967.78;;;-2.39;100.00
49945;BME280;35838;49.134;9.212;2024-01-11T00:25:26;100972.38;;;-2.47;100.00
49945;BME280;35838;49.134;9.212;2024-01-11T00:26:57;100972.09;;;-2.52;100.00
49945;BME280;35838;49.134;9.212;2024-01-11T00:28:31;100979.41;;;-2.56;100.00
49945;BME280;35838;49.134;9.212;2024-01-11T00:30:02;100979.19;;;-2.59;100.00
49945;BME280;35838;49.134;9.212;2024-01-11T00:31:36;100982.41;;;-2.62;100.00
49945;BME280;35838;49.134;9.212;2024-01-11T00:33:09;100980.06;;;-2.59;100.00
49945;BME280;35838;49.134;9.212;2024-01-11T00:34:42;100983.50;;;-2.58;100.00
49945;BME280;35838;49.134;9.212;2024-01-11T00:36:17;100984.38;;;-2.58;100.00
49945;BME280;35838;49.134;9.212;2024-01-11T00:37:50;100984.06;;;-2.62;100.00
49945;BME280;35838;49.134;9.212;2024-01-11T00:39:24;100976.75;;;-2.58;100.00
49945;BME280;35838;49.134;9.212;2024-01-11T00:40:57;100986.03;;;-2.58;100.00
49945;BME280;35838;49.134;9.212;2024-01-11T00:42:28;100978.50;;;-2.57;100.00
49945;BME280;35838;49.134;9.212;2024-01-11T00:44:02;100975.41;;;-2.53;100.00
49945;BME280;35838;49.134;9.212;2024-01-11T00:45:33;100979.50;;;-2.55;100.00
49945;BME280;35838;49.134;9.212;2024-01-11T00:47:07;100978.28;;;-2.60;100.00
49945;BME280;35838;49.134;9.212;2024-01-11T00:48:38;100981.63;;;-2.61;100.00
49945;BME280;35838;49.134;9.212;2024-01-11T00:50:11;100977.50;;;-2.59;100.00
49945;BME280;35838;49.134;9.212;2024-01-11T00:51:42;100979.28;;;-2.58;100.00
49945;BME280;35838;49.134;9.212;2024-01-11T00:53:16;100983.28;;;-2.61;100.00
49945;BME280;35838;49.134;9.212;2024-01-11T00:54:50;100980.84;;;-2.60;100.00
49945;BME280;35838;49.134;9.212;2024-01-11T00:56:23;100978.97;;;-2.62;100.00
49945;BME280;35838;49.134;9.212;2024-01-11T00:57:54;100983.59;;;-2.57;100.00
49945;BME280;35838;49.134;9.212;2024-01-11T00:59:28;100988.13;;;-2.53;100.00
49945;BME280;35838;49.134;9.212;2024-01-11T01:00:59;100986.66;;;-2.49;100.00
49945;BME280;35838;49.134;9.212;2024-01-11T01:02:33;100990.75;;;-2.38;100.00
49945;BME280;35838;49.134;9.212;2024-01-11T01:04:04;100993.69;;;-2.45;100.00
49945;BME280;35838;49.134;9.212;2024-01-11T01:05:37;100992.81;;;-2.45;100.00
49945;BME280;35838;49.134;9.212;2024-01-11T01:07:08;100990.75;;;-2.38;100.00
49945;BME280;35838;49.134;9.212;2024-01-11T01:08:42;101001.00;;;-2.49;100.00
49945;BME280;35838;49.134;9.212;2024-01-11T01:10:18;100997.59;;;-2.50;100.00
49945;BME280;35838;49.134;9.212;2024-01-11T01:11:49;100999.94;;;-2.53;100.00
49945;BME280;35838;49.134;9.212;2024-01-11T01:13:23;100996.31;;;-2.57;100.00
49945;BME280;35838;49.134;9.212;2024-01-11T01:14:54;100993.34;;;-2.63;100.00
49945;BME280;35838;49.134;9.212;2024-01-11T01:16:27;100988.22;;;-2.76;100.00
49945;BME280;35838;49.134;9.212;2024-01-11T01:18:01;100995.84;;;-2.76;100.00
49945;BME280;35838;49.134;9.212;2024-01-11T01:19:32;100989.22;;;-2.74;100.00
49945;BME280;35838;49.134;9.212;2024-01-11T01:21:07;100993.31;;;-2.76;100.00
49945;BME280;35838;49.134;9.212;2024-01-11T01:22:38;100990.50;;;-2.93;100.00
49945;BME280;35838;49.134;9.212;2024-01-11T01:24:11;100989.69;;;-2.80;100.00
49945;BME280;35838;49.134;9.212;2024-01-11T01:25:45;100985.69;;;-2.76;100.00
49945;BME280;35838;49.134;9.212;2024-01-11T01:27:18;100992.81;;;-2.84;100.00
49945;BME280;35838;49.134;9.212;2024-01-11T01:28:49;101001.19;;;-2.85;100.00
49945;BME280;35838;49.134;9.212;2024-01-11T01:30:23;100995.41;;;-2.96;100.00
49945;BME280;35838;49.134;9.212;2024-01-11T01:31:54;100992.88;;;-2.96;100.00
49945;BME280;35838;49.134;9.212;2024-01-11T01:33:28;100999.69;;;-2.95;100.00
49945;BME280;35838;49.134;9.212;2024-01-11T01:34:59;101001.66;;;-2.91;100.00
49945;BME280;35838;49.134;9.212;2024-01-11T01:36:32;101000.66;;;-2.93;100.00
49945;BME280;35838;49.134;9.212;2024-01-11T01:38:06;101002.34;;;-2.93;100.00
49945;BME280;35838;49.134;9.212;2024-01-11T01:39:37;101000.66;;;-2.93;100.00
49945;BME280;35838;49.134;9.212;2024-01-11T01:41:13;101009.59;;;-2.86;100.00
49945;BME280;35838;49.134;9.212;2024-01-11T01:42:44;101003.66;;;-2.87;100.00
49945;BME280;35838;49.134;9.212;2024-01-11T01:44:18;101010.22;;;-2.77;100.00
49945;BME280;35838;49.134;9.212;2024-01-11T01:45:49;101011.78;;;-2.79;100.00
49945;BME280;35838;49.134;9.212;2024-01-11T01:47:23;101012.50;;;-2.68;100.00
49945;BME280;35838;49.134;9.212;2024-01-11T01:48:55;101016.84;;;-2.79;100.00
49945;BME280;35838;49.134;9.212;2024-01-11T01:50:30;101018.72;;;-2.76;100.00
49945;BME280;35838;49.134;9.212;2024-01-11T01:52:04;101014.38;;;-2.65;100.00
49945;BME280;35838;49.134;9.212;2024-01-11T01:53:36;101017.56;;;-2.68;100.00
49945;BME280;35838;49.134;9.212;2024-01-11T01:55:10;101015.03;;;-2.68;100.00
49945;BME280;35838;49.134;9.212;2024-01-11T01:56:44;101020.63;;;-2.60;100.00
49945;BME280;35838;49.134;9.212;2024-01-11T01:58:18;101012.16;;;-2.61;100.00
49945;BME280;35838;49.134;9.212;2024-01-11T01:59:49;101027.28;;;-2.62;100.00
49945;BME280;35838;49.134;9.212;2024-01-11T02:01:24;101022.19;;;-2.62;100.00
49945;BME280;35838;49.134;9.212;2024-01-11T02:02:56;101020.06;;;-2.56;100.00
49945;BME280;35838;49.134;9.212;2024-01-11T02:04:31;101024.94;;;-2.59;100.00
49945;BME280;35838;49.134;9.212;2024-01-11T02:06:03;101027.72;;;-2.68;100.00
49945;BME280;35838;49.134;9.212;2024-01-11T02:07:38;101034.03;;;-2.63;100.00
49945;BME280;35838;49.134;9.212;2024-01-11T02:09:09;101028.72;;;-2.66;100.00
49945;BME280;35838;49.134;9.212;2024-01-11T02:10:44;101027.28;;;-2.62;100.00
49945;BME280;35838;49.134;9.212;2024-01-11T02:12:19;101024.41;;;-2.67;100.00
49945;BME280;35838;49.134;9.212;2024-01-11T02:13:53;101021.88;;;-2.67;100.00
49945;BME280;35838;49.134;9.212;2024-01-11T02:15:24;101022.31;;;-2.61;100.00
49945;BME280;35838;49.134;9.212;2024-01-11T02:16:58;101019.09;;;-3.09;100.00
49945;BME280;35838;49.134;9.212;2024-01-11T02:18:29;101019.22;;;-2.94;100.00
49945;BME280;35838;49.134;9.212;2024-01-11T02:20:03;101020.91;;;-2.94;100.00
49945;BME280;35838;49.134;9.212;2024-01-11T02:21:34;101017.31;;;-2.85;100.00
49945;BME280;35838;49.134;9.212;2024-01-11T02:23:10;101012.22;;;-2.85;100.00
49945;BME280;35838;49.134;9.212;2024-01-11T02:24:48;101008.38;;;-2.79;100.00
49945;BME280;35838;49.134;9.212;2024-01-11T02:26:19;100999.16;;;-2.77;100.00
49945;BME280;35838;49.134;9.212;2024-01-11T02:27:53;101001.81;;;-2.76;100.00
49945;BME280;35838;49.134;9.212;2024-01-11T02:29:24;101001.81;;;-2.76;100.00
49945;BME280;35838;49.134;9.212;2024-01-11T02:30:57;101005.81;;;-2.79;100.00
49945;BME280;35838;49.134;9.212;2024-01-11T02:32:28;101000.16;;;-2.75;100.00
49945;BME280;35838;49.134;9.212;2024-01-11T02:34:02;101000.16;;;-2.75;100.00
49945;BME280;35838;49.134;9.212;2024-01-11T02:35:33;101002.06;;;-2.85;100.00
49945;BME280;35838;49.134;9.212;2024-01-11T02:37:09;101005.69;;;-2.81;100.00
49945;BME280;35838;49.134;9.212;2024-01-11T02:38:40;101004.59;;;-2.85;100.00
49945;BME280;35838;49.134;9.212;2024-01-11T02:40:17;101011.22;;;-2.75;100.00
49945;BME280;35838;49.134;9.212;2024-01-11T02:41:49;101003.91;;;-2.70;100.00
49945;BME280;35838;49.134;9.212;2024-01-11T02:43:24;101004.25;;;-2.77;100.00
49945;BME280;35838;49.134;9.212;2024-01-11T02:44:55;101000.28;;;-2.74;100.00
49945;BME280;35838;49.134;9.212;2024-01-11T02:46:29;101008.00;;;-2.72;100.00
49945;BME280;35838;49.134;9.212;2024-01-11T02:48:00;101004.25;;;-2.77;100.00
49945;BME280;35838;49.134;9.212;2024-01-11T02:49:34;101013.06;;;-2.72;100.00
49945;BME280;35838;49.134;9.212;2024-01-11T02:51:05;101021.69;;;-2.70;100.00
49945;BME280;35838;49.134;9.212;2024-01-11T02:52:39;101006.97;;;-3.00;100.00
49945;BME280;35838;49.134;9.212;2024-01-11T02:54:12;101009.25;;;-3.04;100.00
49945;BME280;35838;49.134;9.212;2024-01-11T02:55:46;101008.44;;;-3.03;100.00
49945;BME280;35838;49.134;9.212;2024-01-11T02:57:20;101014.09;;;-3.07;100.00
49945;BME280;35838;49.134;9.212;2024-01-11T02:58:51;101010.00;;;-3.05;100.00
49945;BME280;35838;49.134;9.212;2024-01-11T03:00:24;101006.69;;;-3.04;100.00
49945;BME280;35838;49.134;9.212;2024-01-11T03:01:56;101011.50;;;-2.95;100.00
49945;BME280;35838;49.134;9.212;2024-01-11T03:03:29;101007.66;;;-3.02;100.00
49945;BME280;35838;49.134;9.212;2024-01-11T03:05:00;101004.72;;;-3.08;100.00
49945;BME280;35838;49.134;9.212;2024-01-11T03:06:34;101005.59;;;-3.08;100.00
49945;BME280;35838;49.134;9.212;2024-01-11T03:08:05;101006.34;;;-2.97;100.00
49945;BME280;35838;49.134;9.212;2024-01-11T03:09:38;101009.06;;;-2.94;100.00
49945;BME280;35838;49.134;9.212;2024-01-11T03:11:12;101011.16;;;-2.88;100.00
49945;BME280;35838;49.134;9.212;2024-01-11T03:12:47;101000.56;;;-2.94;100.00
49945;BME280;35838;49.134;9.212;2024-01-11T03:14:19;101004.81;;;-3.07;100.00
49945;BME280;35838;49.134;9.212;2024-01-11T03:15:53;101011.56;;;-3.07;100.00
49945;BME280;35838;49.134;9.212;2024-01-11T03:17:24;101012.66;;;-3.04;100.00
49945;BME280;35838;49.134;9.212;2024-01-11T03:18:58;101016.38;;;-2.99;100.00
49945;BME280;35838;49.134;9.212;2024-01-11T03:20:29;101020.81;;;-2.96;100.00
49945;BME280;35838;49.134;9.212;2024-01-11T03:22:02;101014.41;;;-3.03;100.00
49945;BME280;35838;49.134;9.212;2024-01-11T03:23:37;101006.56;;;-3.06;100.00
49945;BME280;35838;49.134;9.212;2024-01-11T03:25:08;101003.56;;;-3.00;100.00
49945;BME280;35838;49.134;9.212;2024-01-11T03:26:47;100997.97;;;-3.08;100.00
49945;BME280;35838;49.134;9.212;2024-01-11T03:28:18;100999.63;;;-3.08;100.00
49945;BME280;35838;49.134;9.212;2024-01-11T03:29:51;100997.09;;;-3.08;100.00
49945;BME280;35838;49.134;9.212;2024-01-11T03:31:22;101000.81;;;-3.03;100.00
49945;BME280;35838;49.134;9.212;2024-01-11T03:32:56;100997.50;;;-3.02;100.00
49945;BME280;35838;49.134;9.212;2024-01-11T03:34:27;100995.97;;;-3.00;100.00
49945;BME280;35838;49.134;9.212;2024-01-11T03:36:05;100990.09;;;-2.99;100.00
49945;BME280;35838;49.134;9.212;2024-01-11T03:37:36;100997.72;;;-2.99;100.00
49945;BME280;35838;49.134;9.212;2024-01-11T03:39:10;100991.09;;;-2.97;100.00
49945;BME280;35838;49.134;9.212;2024-01-11T03:40:41;100989.34;;;-2.98;100.00
49945;BME280;35838;49.134;9.212;2024-01-11T03:42:17;100993.94;;;-2.92;100.00
49945;BME280;35838;49.134;9.212;2024-01-11T03:43:49;101002.38;;;-2.80;100.00
49945;BME280;35838;49.134;9.212;2024-01-11T03:45:23;101004.75;;;-2.83;100.00
49945;BME280;35838;49.134;9.212;2024-01-11T03:46:54;100998.31;;;-3.15;100.00
49945;BME280;35838;49.134;9.212;2024-01-11T03:48:27;101001.75;;;-3.15;100.00
49945;BME280;35838;49.134;9.212;2024-01-11T03:49:58;100997.69;;;-3.24;100.00
49945;BME280;35838;49.134;9.212;2024-01-11T03:51:32;100997.50;;;-3.27;100.00
49945;BME280;35838;49.134;9.212;2024-01-11T03:53:03;100989.47;;;-3.46;100.00
49945;BME280;35838;49.134;9.212;2024-01-11T03:54:38;100999.41;;;-3.37;100.00
49945;BME280;35838;49.134;9.212;2024-01-11T03:56:09;100995.19;;;-3.36;100.00
49945;BME280;35838;49.134;9.212;2024-01-11T03:57:46;100993.66;;;-3.34;100.00
49945;BME280;35838;49.134;9.212;2024-01-11T03:59:17;101001.81;;;-3.38;100.00
49945;BME280;35838;49.134;9.212;2024-01-11T04:00:50;100990.75;;;-3.27;100.00
49945;BME280;35838;49.134;9.212;2024-01-11T04:02:21;100985.88;;;-3.24;100.00
49945;BME280;35838;49.134;9.212;2024-01-11T04:03:55;100994.97;;;-3.27;100.00
49945;BME280;35838;49.134;9.212;2024-01-11T04:05:26;100998.22;;;-3.17;100.00
49945;BME280;35838;49.134;9.212;2024-01-11T04:06:59;100993.59;;;-3.22;100.00
49945;BME280;35838;49.134;9.212;2024-01-11T04:08:30;100998.28;;;-3.28;100.00
49945;BME280;35838;49.134;9.212;2024-01-11T04:10:05;100990.34;;;-3.33;100.00
49945;BME280;35838;49.134;9.212;2024-01-11T04:11:39;100987.69;;;-3.47;100.00
49945;BME280;35838;49.134;9.212;2024-01-11T04:13:12;100989.16;;;-3.62;100.00
49945;BME280;35838;49.134;9.212;2024-01-11T04:14:46;100991.50;;;-3.77;100.00
49945;BME280;35838;49.134;9.212;2024-01-11T04:16:17;100995.59;;;-3.79;100.00
49945;BME280;35838;49.134;9.212;2024-01-11T04:17:50;100993.94;;;-3.79;100.00
49945;BME280;35838;49.134;9.212;2024-01-11T04:19:21;100994.72;;;-3.80;100.00
49945;BME280;35838;49.134;9.212;2024-01-11T04:20:55;100984.56;;;-3.91;100.00
49945;BME280;35838;49.134;9.212;2024-01-11T04:22:27;100991.84;;;-3.84;100.00
49945;BME280;35838;49.134;9.212;2024-01-11T04:24:01;100983.78;;;-3.79;100.00
49945;BME280;35838;49.134;9.212;2024-01-11T04:25:33;100982.03;;;-3.80;100.00
49945;BME280;35838;49.134;9.212;2024-01-11T04:27:06;100988.41;;;-3.73;100.00
49945;BME280;35838;49.134;9.212;2024-01-11T04:28:40;100980.38;;;-3.67;100.00
49945;BME280;35838;49.134;9.212;2024-01-11T04:30:14;100988.31;;;-3.63;100.00
49945;BME280;35838;49.134;9.212;2024-01-11T04:31:47;100980.13;;;-3.58;100.00
49945;BME280;35838;49.134;9.212;2024-01-11T04:33:18;100982.19;;;-3.53;100.00
49945;BME280;35838;49.134;9.212;2024-01-11T04:34:52;100980.41;;;-3.42;100.00
49945;BME280;35838;49.134;9.212;2024-01-11T04:36:23;100986.03;;;-3.34;100.00
49945;BME280;35838;49.134;9.212;2024-01-11T04:37:56;100985.03;;;-3.36;100.00
49945;BME280;35838;49.134;9.212;2024-01-11T04:39:27;100993.19;;;-3.28;100.00
49945;BME280;35838;49.134;9.212;2024-01-11T04:41:01;100989.19;;;-3.25;100.00
49945;BME280;35838;49.134;9.212;2024-01-11T04:42:32;100989.19;;;-3.25;100.00
49945;BME280;35838;49.134;9.212;2024-01-11T04:44:08;100992.06;;;-3.20;100.00
49945;BME280;35838;49.134;9.212;2024-01-11T04:45:40;100996.16;;;-3.22;100.00
49945;BME280;35838;49.134;9.212;2024-01-11T04:47:14;100996.47;;;-3.18;100.00
49945;BME280;35838;49.134;9.212;2024-01-11T04:48:46;101004.84;;;-3.19;100.00
49945;BME280;35838;49.134;9.212;2024-01-11T04:50:20;101007.72;;;-3.14;100.00
49945;BME280;35838;49.134;9.212;2024-01-11T04:51:51;101007.94;;;-3.11;100.00
49945;BME280;35838;49.134;9.212;2024-01-11T04:53:25;101007.16;;;-3.10;100.00
49945;BME280;35838;49.134;9.212;2024-01-11T04:54:56;101011.16;;;-3.13;100.00
49945;BME280;35838;49.134;9.212;2024-01-11T04:56:29;101004.41;;;-3.13;100.00
49945;BME280;35838;49.134;9.212;2024-01-11T04:58:00;101001.75;;;-3.15;100.00
49945;BME280;35838;49.134;9.212;2024-01-11T04:59:37;101005.25;;;-3.12;100.00
49945;BME280;35838;49.134;9.212;2024-01-11T05:01:11;101018.97;;;-3.10;100.00
49945;BME280;35838;49.134;9.212;2024-01-11T05:02:45;101015.09;;;-3.05;100.00
49945;BME280;35838;49.134;9.212;2024-01-11T05:04:18;101023.38;;;-3.08;100.00
49945;BME280;35838;49.134;9.212;2024-01-11T05:05:49;101013.78;;;-3.12;100.00
49945;BME280;35838;49.134;9.212;2024-01-11T05:07:23;101018.09;;;-3.11;100.00
49945;BME280;35838;49.134;9.212;2024-01-11T05:08:54;101024.03;;;-3.10;100.00
49945;BME280;35838;49.134;9.212;2024-01-11T05:10:27;101022.72;;;-3.17;100.00
49945;BME280;35838;49.134;9.212;2024-01-11T05:11:58;101014.16;;;-3.19;100.00
49945;BME280;35838;49.134;9.212;2024-01-11T05:13:32;101016.56;;;-3.21;100.00
49945;BME280;35838;49.134;9.212;2024-01-11T05:15:06;101008.63;;;-3.25;100.00
49945;BME280;35838;49.134;9.212;2024-01-11T05:16:40;101012.59;;;-3.29;100.00
49945;BME280;35838;49.134;9.212;2024-01-11T05:18:12;101007.31;;;-3.20;100.00
49945;BME280;35838;49.134;9.212;2024-01-11T05:19:45;101017.59;;;-3.31;100.00
49945;BME280;35838;49.134;9.212;2024-01-11T05:21:16;101017.81;;;-3.27;100.00
49945;BME280;35838;49.134;9.212;2024-01-11T05:22:50;101025.63;;;-3.24;100.00
49945;BME280;35838;49.134;9.212;2024-01-11T05:24:21;101022.13;;;-3.26;100.00
49945;BME280;35838;49.134;9.212;2024-01-11T05:25:55;101015.38;;;-3.26;100.00
49945;BME280;35838;49.134;9.212;2024-01-11T05:27:26;101020.03;;;-3.32;100.00
49945;BME280;35838;49.134;9.212;2024-01-11T05:28:59;101021.00;;;-3.30;100.00
49945;BME280;35838;49.134;9.212;2024-01-11T05:30:33;101033.50;;;-3.33;100.00
49945;BME280;35838;49.134;9.212;2024-01-11T05:32:07;101030.72;;;-3.36;100.00
49945;BME280;35838;49.134;9.212;2024-01-11T05:33:40;101032.59;;;-3.34;100.00
49945;BME280;35838;49.134;9.212;2024-01-11T05:35:11;101034.25;;;-3.34;100.00
49945;BME280;35838;49.134;9.212;2024-01-11T05:36:45;101027.66;;;-3.32;100.00
49945;BME280;35838;49.134;9.212;2024-01-11T05:38:16;101027.66;;;-3.32;100.00
49945;BME280;35838;49.134;9.212;2024-01-11T05:39:49;101025.31;;;-3.29;100.00
49945;BME280;35838;49.134;9.212;2024-01-11T05:41:21;101029.59;;;-3.28;100.00
49945;BME280;35838;49.134;9.212;2024-01-11T05:42:54;101031.28;;;-3.28;100.00
49945;BME280;35838;49.134;9.212;2024-01-11T05:44:25;101038.00;;;-3.29;100.00
49945;BME280;35838;49.134;9.212;2024-01-11T05:46:01;101041.31;;;-3.30;100.00
49945;BME280;35838;49.134;9.212;2024-01-11T05:47:32;101038.66;;;-3.32;100.00
49945;BME280;35838;49.134;9.212;2024-01-11T05:49:06;101041.13;;;-3.33;100.00
49945;BME280;35838;49.134;9.212;2024-01-11T05:50:38;101036.56;;;-3.25;100.00
49945;BME280;35838;49.134;9.212;2024-01-11T05:52:11;101036.56;;;-3.25;100.00
49945;BME280;35838;49.134;9.212;2024-01-11T05:53:42;101040.22;;;-3.22;100.00
49945;BME280;35838;49.134;9.212;2024-01-11T05:55:16;101035.59;;;-3.27;100.00
49945;BME280;35838;49.134;9.212;2024-01-11T05:56:47;101040.66;;;-3.27;100.00
49945;BME280;35838;49.134;9.212;2024-01-11T05:58:26;101043.94;;;-3.17;100.00
49945;BME280;35838;49.134;9.212;2024-01-11T05:59:57;101041.63;;;-3.13;100.00
49945;BME280;35838;49.134;9.212;2024-01-11T06:01:33;101041.63;;;-3.13;100.00
49945;BME280;35838;49.134;9.212;2024-01-11T06:03:13;101042.72;;;-3.10;100.00
49945;BME280;35838;49.134;9.212;2024-01-11T06:04:44;101041.09;;;-3.21;100.00
49945;BME280;35838;49.134;9.212;2024-01-11T06:06:18;101043.53;;;-3.23;100.00
49945;BME280;35838;49.134;9.212;2024-01-11T06:07:51;101046.06;;;-3.23;100.00
49945;BME280;35838;49.134;9.212;2024-01-11T06:09:22;101045.06;;;-3.25;100.00
49945;BME280;35838;49.134;9.212;2024-01-11T06:10:56;101038.91;;;-3.28;100.00
49945;BME280;35838;49.134;9.212;2024-01-11T06:12:27;101031.16;;;-3.30;100.00
49945;BME280;35838;49.134;9.212;2024-01-11T06:14:01;101035.47;;;-3.29;100.00
49945;BME280;35838;49.134;9.212;2024-01-11T06:15:35;101036.47;;;-3.27;100.00
49945;BME280;35838;49.134;9.212;2024-01-11T06:17:08;101044.06;;;-3.27;100.00
49945;BME280;35838;49.134;9.212;2024-01-11T06:18:42;101048.81;;;-3.32;100.00
49945;BME280;35838;49.134;9.212;2024-01-11T06:20:13;101049.91;;;-3.28;100.00
49945;BME280;35838;49.134;9.212;2024-01-11T06:21:47;101049.81;;;-3.29;100.00
49945;BME280;35838;49.134;9.212;2024-01-11T06:23:18;101053.13;;;-3.31;100.00
49945;BME280;35838;49.134;9.212;2024-01-11T06:24:52;101046.84;;;-3.24;100.00
49945;BME280;35838;49.134;9.212;2024-01-11T06:26:26;101052.09;;;-3.21;100.00
49945;BME280;35838;49.134;9.212;2024-01-11T06:27:57;101055.66;;;-3.19;100.00
49945;BME280;35838;49.134;9.212;2024-01-11T06:29:30;101058.97;;;-3.20;100.00
49945;BME280;35838;49.134;9.212;2024-01-11T06:31:01;101051.56;;;-3.17;100.00
49945;BME280;35838;49.134;9.212;2024-01-11T06:32:37;101053.69;;;-3.23;100.00
49945;BME280;35838;49.134;9.212;2024-01-11T06:34:08;101054.22;;;-3.27;100.00
49945;BME280;35838;49.134;9.212;2024-01-11T06:35:42;101054.31;;;-3.25;100.00
49945;BME280;35838;49.134;9.212;2024-01-11T06:37:13;101043.03;;;-3.17;100.00
49945;BME280;35838;49.134;9.212;2024-01-11T06:38:47;101047.94;;;-3.20;100.00
49945;BME280;35838;49.134;9.212;2024-01-11T06:40:18;101049.69;;;-3.19;100.00
49945;BME280;35838;49.134;9.212;2024-01-11T06:41:52;101054.78;;;-3.19;100.00
49945;BME280;35838;49.134;9.212;2024-01-11T06:43:25;101061.41;;;-3.21;100.00
49945;BME280;35838;49.134;9.212;2024-01-11T06:44:56;101053.78;;;-3.21;100.00
49945;BME280;35838;49.134;9.212;2024-01-11T06:46:30;101060.31;;;-3.25;100.00
49945;BME280;35838;49.134;9.212;2024-01-11T06:48:04;101065.81;;;-3.19;100.00
49945;BME280;35838;49.134;9.212;2024-01-11T06:49:38;101058.75;;;-3.23;100.00
49945;BME280;35838;49.134;9.212;2024-01-11T06:51:12;101053.38;;;-3.27;100.00
49945;BME280;35838;49.134;9.212;2024-01-11T06:52:47;101055.22;;;-3.25;100.00
49945;BME280;35838;49.134;9.212;2024-01-11T06:54:18;101068.91;;;-3.23;100.00
49945;BME280;35838;49.134;9.212;2024-01-11T06:55:51;101070.38;;;-3.26;100.00
49945;BME280;35838;49.134;9.212;2024-01-11T06:57:23;101068.16;;;-3.22;100.00
49945;BME280;35838;49.134;9.212;2024-01-11T06:58:56;101078.75;;;-3.27;100.00
49945;BME280;35838;49.134;9.212;2024-01-11T07:00:27;101078.31;;;-3.22;100.00
49945;BME280;35838;49.134;9.212;2024-01-11T07:02:01;101074.19;;;-3.20;100.00
49945;BME280;35838;49.134;9.212;2024-01-11T07:03:36;101080.19;;;-3.19;100.00
49945;BME280;35838;49.134;9.212;2024-01-11T07:05:09;101078.09;;;-3.25;100.00
49945;BME280;35838;49.134;9.212;2024-01-11T07:06:40;101081.28;;;-3.16;100.00
49945;BME280;35838;49.134;9.212;2024-01-11T07:08:14;101091.06;;;-3.08;100.00
49945;BME280;35838;49.134;9.212;2024-01-11T07:09:45;101095.13;;;-2.99;100.00
49945;BME280;35838;49.134;9.212;2024-01-11T07:11:19;101093.69;;;-2.95;100.00
49945;BME280;35838;49.134;9.212;2024-01-11T07:12:50;101099.34;;;-2.99;100.00
49945;BME280;35838;49.134;9.212;2024-01-11T07:14:23;101093.50;;;-2.98;100.00
49945;BME280;35838;49.134;9.212;2024-01-11T07:15:54;101097.78;;;-2.97;100.00
49945;BME280;35838;49.134;9.212;2024-01-11T07:17:28;101101.53;;;-2.92;100.00
49945;BME280;35838;49.134;9.212;2024-01-11T07:19:02;101108.59;;;-2.88;100.00
49945;BME280;35838;49.134;9.212;2024-01-11T07:20:35;101121.41;;;-2.86;100.00
49945;BME280;35838;49.134;9.212;2024-01-11T07:22:06;101118.75;;;-2.88;100.00
49945;BME280;35838;49.134;9.212;2024-01-11T07:23:40;101115.44;;;-2.87;100.00
49945;BME280;35838;49.134;9.212;2024-01-11T07:25:11;101115.78;;;-2.94;100.00
49945;BME280;35838;49.134;9.212;2024-01-11T07:26:45;101114.00;;;-2.95;100.00
49945;BME280;35838;49.134;9.212;2024-01-11T07:28:16;101116.53;;;-2.95;100.00
49945;BME280;35838;49.134;9.212;2024-01-11T07:29:55;101117.00;;;-2.89;100.00
49945;BME280;35838;49.134;9.212;2024-01-11T07:31:29;101119.63;;;-2.87;100.00
49945;BME280;35838;49.134;9.212;2024-01-11T07:33:00;101118.09;;;-2.85;100.00
49945;BME280;35838;49.134;9.212;2024-01-11T07:34:37;101119.63;;;-2.87;100.00
49945;BME280;35838;49.134;9.212;2024-01-11T07:36:09;101123.84;;;-2.88;100.00
49945;BME280;35838;49.134;9.212;2024-01-11T07:37:42;101130.81;;;-2.97;100.00
49945;BME280;35838;49.134;9.212;2024-01-11T07:39:13;101132.59;;;-2.96;100.00
49945;BME280;35838;49.134;9.212;2024-01-11T07:40:47;101144.16;;;-3.00;100.00
49945;BME280;35838;49.134;9.212;2024-01-11T07:42:18;101133.38;;;-2.97;100.00
49945;BME280;35838;49.134;9.212;2024-01-11T07:43:52;101139.31;;;-2.96;100.00
49945;BME280;35838;49.134;9.212;2024-01-11T07:45:24;101140.75;;;-3.00;100.00
49945;BME280;35838;49.134;9.212;2024-01-11T07:46:58;101142.75;;;-3.08;100.00
49945;BME280;35838;49.134;9.212;2024-01-11T07:48:29;101145.09;;;-3.11;100.00
49945;BME280;35838;49.134;9.212;2024-01-11T07:50:05;101148.75;;;-3.19;100.00
49945;BME280;35838;49.134;9.212;2024-01-11T07:51:40;101156.88;;;-3.11;100.00
49945;BME280;35838;49.134;9.212;2024-01-11T07:53:11;101156.13;;;-3.10;100.00
49945;BME280;35838;49.134;9.212;2024-01-11T07:54:45;101155.69;;;-3.17;100.00
49945;BME280;35838;49.134;9.212;2024-01-11T07:56:16;101149.72;;;-3.17;100.00
49945;BME280;35838;49.134;9.212;2024-01-11T07:57:50;101161.44;;;-3.19;100.00
49945;BME280;35838;49.134;9.212;2024-01-11T07:59:21;101167.38;;;-3.19;100.00